sensor_id;sensor_type;location;lat;lon;timestamp;P1;durP1;ratioP1;P2;durP2;ratioP2
41643;SDS011;44236;48.098;11.582;2023-12-22T00:02:07;3.33;;;1.45;;
41643;SDS011;44236;48.098;11.582;2023-12-22T00:04:32;6.03;;;1.77;;
41643;SDS011;44236;48.098;11.582;2023-12-22T00:06:58;3.55;;;1.40;;
41643;SDS011;44236;48.098;11.582;2023-12-22T00:09:23;5.10;;;1.50;;
41643;SDS011;44236;48.098;11.582;2023-12-22T00:11:49;4.47;;;1.45;;
41643;SDS011;44236;48.098;11.582;2023-12-22T00:14:15;2.10;;;0.98;;
41643;SDS011;44236;48.098;11.582;2023-12-22T00:16:40;3.10;;;1.40;;
41643;SDS011;44236;48.098;11.582;2023-12-22T00:19:06;3.38;;;1.38;;
41643;SDS011;44236;48.098;11.582;2023-12-22T00:21:31;4.20;;;1.55;;
41643;SDS011;44236;48.098;11.582;2023-12-22T00:23:57;4.10;;;1.40;;
41643;SDS011;44236;48.098;11.582;2023-12-22T00:26:23;4.13;;;1.27;;
41643;SDS011;44236;48.098;11.582;2023-12-22T00:28:48;5.30;;;1.38;;
41643;SDS011;44236;48.098;11.582;2023-12-22T00:31:14;3.78;;;1.30;;
41643;SDS011;44236;48.098;11.582;2023-12-22T00:33:40;3.28;;;1.60;;
41643;SDS011;44236;48.098;11.582;2023-12-22T00:36:05;6.00;;;2.17;;
41643;SDS011;44236;48.098;11.582;2023-12-22T00:38:31;7.05;;;2.00;;
41643;SDS011;44236;48.098;11.582;2023-12-22T00:40:57;2.90;;;1.23;;
41643;SDS011;44236;48.098;11.582;2023-12-22T00:43:22;5.72;;;1.48;;
41643;SDS011;44236;48.098;11.582;2023-12-22T00:45:48;5.65;;;1.70;;
41643;SDS011;44236;48.098;11.582;2023-12-22T00:48:14;4.18;;;1.55;;
41643;SDS011;44236;48.098;11.582;2023-12-22T00:50:41;3.35;;;1.30;;
41643;SDS011;44236;48.098;11.582;2023-12-22T00:53:06;2.70;;;1.15;;
41643;SDS011;44236;48.098;11.582;2023-12-22T00:55:32;4.13;;;1.55;;
41643;SDS011;44236;48.098;11.582;2023-12-22T00:57:57;4.43;;;1.13;;
41643;SDS011;44236;48.098;11.582;2023-12-22T01:00:23;6.03;;;1.70;;
41643;SDS011;44236;48.098;11.582;2023-12-22T01:02:48;4.40;;;2.00;;
41643;SDS011;44236;48.098;11.582;2023-12-22T01:05:14;4.57;;;1.30;;
41643;SDS011;44236;48.098;11.582;2023-12-22T01:07:40;4.50;;;1.85;;
41643;SDS011;44236;48.098;11.582;2023-12-22T01:10:06;3.17;;;1.25;;
41643;SDS011;44236;48.098;11.582;2023-12-22T01:12:31;4.93;;;1.60;;
41643;SDS011;44236;48.098;11.582;2023-12-22T01:14:57;3.35;;;1.50;;
41643;SDS011;44236;48.098;11.582;2023-12-22T01:17:23;2.55;;;1.15;;
41643;SDS011;44236;48.098;11.582;2023-12-22T01:19:48;4.78;;;1.30;;
41643;SDS011;44236;48.098;11.582;2023-12-22T01:22:14;7.18;;;1.63;;
41643;SDS011;44236;48.098;11.582;2023-12-22T01:24:40;3.75;;;0.90;;
41643;SDS011;44236;48.098;11.582;2023-12-22T01:27:08;2.03;;;0.80;;
41643;SDS011;44236;48.098;11.582;2023-12-22T01:29:34;2.10;;;0.90;;
41643;SDS011;44236;48.098;11.582;2023-12-22T01:32:00;2.50;;;1.10;;
41643;SDS011;44236;48.098;11.582;2023-12-22T01:34:25;2.22;;;1.00;;
41643;SDS011;44236;48.098;11.582;2023-12-22T01:36:51;3.55;;;1.08;;
41643;SDS011;44236;48.098;11.582;2023-12-22T01:39:16;3.70;;;1.08;;
41643;SDS011;44236;48.098;11.582;2023-12-22T01:41:42;3.42;;;0.80;;
41643;SDS011;44236;48.098;11.582;2023-12-22T01:44:08;1.90;;;0.93;;
41643;SDS011;44236;48.098;11.582;2023-12-22T01:46:34;1.42;;;0.77;;
41643;SDS011;44236;48.098;11.582;2023-12-22T01:49:01;4.05;;;1.10;;
41643;SDS011;44236;48.098;11.582;2023-12-22T01:51:30;3.70;;;1.15;;
41643;SDS011;44236;48.098;11.582;2023-12-22T01:53:58;2.25;;;1.05;;
41643;SDS011;44236;48.098;11.582;2023-12-22T01:56:24;2.33;;;0.90;;
41643;SDS011;44236;48.098;11.582;2023-12-22T01:58:51;4.53;;;0.73;;
41643;SDS011;44236;48.098;11.582;2023-12-22T02:01:20;8.00;;;0.90;;
41643;SDS011;44236;48.098;11.582;2023-12-22T02:03:50;2.97;;;1.02;;
41643;SDS011;44236;48.098;11.582;2023-12-22T02:06:17;1.92;;;1.02;;
41643;SDS011;44236;48.098;11.582;2023-12-22T02:08:45;1.83;;;0.85;;
41643;SDS011;44236;48.098;11.582;2023-12-22T02:11:12;1.60;;;0.70;;
41643;SDS011;44236;48.098;11.582;2023-12-22T02:13:44;0.63;;;0.50;;
41643;SDS011;44236;48.098;11.582;2023-12-22T02:16:11;1.40;;;0.75;;
41643;SDS011;44236;48.098;11.582;2023-12-22T02:18:51;2.17;;;0.90;;
41643;SDS011;44236;48.098;11.582;2023-12-22T02:21:20;2.38;;;0.80;;
41643;SDS011;44236;48.098;11.582;2023-12-22T02:23:47;1.63;;;0.70;;
41643;SDS011;44236;48.098;11.582;2023-12-22T02:26:15;1.90;;;1.02;;
41643;SDS011;44236;48.098;11.582;2023-12-22T02:28:46;2.22;;;0.70;;
41643;SDS011;44236;48.098;11.582;2023-12-22T02:31:16;1.75;;;0.63;;
41643;SDS011;44236;48.098;11.582;2023-12-22T02:33:47;1.52;;;0.60;;
41643;SDS011;44236;48.098;11.582;2023-12-22T02:36:17;1.25;;;0.90;;
41643;SDS011;44236;48.098;11.582;2023-12-22T02:38:45;1.92;;;0.80;;
41643;SDS011;44236;48.098;11.582;2023-12-22T02:41:12;1.70;;;0.70;;
41643;SDS011;44236;48.098;11.582;2023-12-22T02:43:39;2.10;;;0.68;;
41643;SDS011;44236;48.098;11.582;2023-12-22T02:46:04;2.28;;;1.10;;
41643;SDS011;44236;48.098;11.582;2023-12-22T02:48:37;1.65;;;0.73;;
41643;SDS011;44236;48.098;11.582;2023-12-22T02:51:03;1.83;;;0.63;;
41643;SDS011;44236;48.098;11.582;2023-12-22T02:53:29;2.00;;;0.55;;
41643;SDS011;44236;48.098;11.582;2023-12-22T02:55:54;0.90;;;0.60;;
41643;SDS011;44236;48.098;11.582;2023-12-22T02:58:20;1.70;;;0.60;;
41643;SDS011;44236;48.098;11.582;2023-12-22T03:00:45;0.75;;;0.55;;
41643;SDS011;44236;48.098;11.582;2023-12-22T03:03:11;1.02;;;0.50;;
41643;SDS011;44236;48.098;11.582;2023-12-22T03:05:38;1.17;;;0.80;;
41643;SDS011;44236;48.098;11.582;2023-12-22T03:08:04;2.17;;;0.60;;
41643;SDS011;44236;48.098;11.582;2023-12-22T03:10:29;1.67;;;0.77;;
41643;SDS011;44236;48.098;11.582;2023-12-22T03:12:55;1.95;;;0.57;;
41643;SDS011;44236;48.098;11.582;2023-12-22T03:15:21;1.35;;;0.88;;
41643;SDS011;44236;48.098;11.582;2023-12-22T03:17:46;1.77;;;0.70;;
41643;SDS011;44236;48.098;11.582;2023-12-22T03:20:12;1.95;;;0.63;;
41643;SDS011;44236;48.098;11.582;2023-12-22T03:22:38;0.68;;;0.50;;
41643;SDS011;44236;48.098;11.582;2023-12-22T03:25:03;1.85;;;0.85;;
41643;SDS011;44236;48.098;11.582;2023-12-22T03:27:29;1.02;;;0.60;;
41643;SDS011;44236;48.098;11.582;2023-12-22T03:29:55;1.38;;;0.70;;
41643;SDS011;44236;48.098;11.582;2023-12-22T03:32:20;0.80;;;0.50;;
41643;SDS011;44236;48.098;11.582;2023-12-22T03:34:46;0.80;;;0.50;;
41643;SDS011;44236;48.098;11.582;2023-12-22T03:37:12;1.98;;;0.75;;
41643;SDS011;44236;48.098;11.582;2023-12-22T03:39:37;0.43;;;0.40;;
41643;SDS011;44236;48.098;11.582;2023-12-22T03:42:03;0.57;;;0.40;;
41643;SDS011;44236;48.098;11.582;2023-12-22T03:44:29;0.50;;;0.50;;
41643;SDS011;44236;48.098;11.582;2023-12-22T03:46:54;0.75;;;0.40;;
41643;SDS011;44236;48.098;11.582;2023-12-22T03:49:21;1.20;;;0.50;;
41643;SDS011;44236;48.098;11.582;2023-12-22T03:51:46;0.60;;;0.40;;
41643;SDS011;44236;48.098;11.582;2023-12-22T03:54:12;0.40;;;0.40;;
41643;SDS011;44236;48.098;11.582;2023-12-22T03:56:38;0.77;;;0.47;;
41643;SDS011;44236;48.098;11.582;2023-12-22T03:59:03;1.17;;;0.52;;
41643;SDS011;44236;48.098;11.582;2023-12-22T04:01:29;0.60;;;0.50;;
41643;SDS011;44236;48.098;11.582;2023-12-22T04:03:54;0.70;;;0.45;;
41643;SDS011;44236;48.098;11.582;2023-12-22T04:06:20;0.50;;;0.40;;
41643;SDS011;44236;48.098;11.582;2023-12-22T04:08:45;0.82;;;0.52;;
41643;SDS011;44236;48.098;11.582;2023-12-22T04:11:11;1.65;;;0.52;;
41643;SDS011;44236;48.098;11.582;2023-12-22T04:13:36;0.55;;;0.43;;
41643;SDS011;44236;48.098;11.582;2023-12-22T04:16:02;0.50;;;0.40;;
41643;SDS011;44236;48.098;11.582;2023-12-22T04:18:30;0.77;;;0.45;;
41643;SDS011;44236;48.098;11.582;2023-12-22T04:20:56;0.95;;;0.52;;
41643;SDS011;44236;48.098;11.582;2023-12-22T04:23:21;0.73;;;0.40;;
41643;SDS011;44236;48.098;11.582;2023-12-22T04:25:47;1.92;;;0.55;;
41643;SDS011;44236;48.098;11.582;2023-12-22T04:28:13;0.65;;;0.30;;
41643;SDS011;44236;48.098;11.582;2023-12-22T04:30:38;0.75;;;0.45;;
41643;SDS011;44236;48.098;11.582;2023-12-22T04:33:04;1.52;;;0.60;;
41643;SDS011;44236;48.098;11.582;2023-12-22T04:35:30;1.73;;;0.50;;
41643;SDS011;44236;48.098;11.582;2023-12-22T04:37:56;1.55;;;0.63;;
41643;SDS011;44236;48.098;11.582;2023-12-22T04:40:21;0.43;;;0.30;;
41643;SDS011;44236;48.098;11.582;2023-12-22T04:42:47;2.50;;;0.50;;
41643;SDS011;44236;48.098;11.582;2023-12-22T04:45:12;1.00;;;0.40;;
41643;SDS011;44236;48.098;11.582;2023-12-22T04:47:38;1.02;;;0.47;;
41643;SDS011;44236;48.098;11.582;2023-12-22T04:50:04;1.13;;;0.47;;
41643;SDS011;44236;48.098;11.582;2023-12-22T04:52:29;1.38;;;0.47;;
41643;SDS011;44236;48.098;11.582;2023-12-22T04:54:55;0.90;;;0.40;;
41643;SDS011;44236;48.098;11.582;2023-12-22T04:57:21;1.77;;;0.57;;
41643;SDS011;44236;48.098;11.582;2023-12-22T04:59:47;0.55;;;0.40;;
41643;SDS011;44236;48.098;11.582;2023-12-22T05:02:12;2.42;;;0.50;;
41643;SDS011;44236;48.098;11.582;2023-12-22T05:04:38;0.82;;;0.40;;
41643;SDS011;44236;48.098;11.582;2023-12-22T05:07:04;0.52;;;0.30;;
41643;SDS011;44236;48.098;11.582;2023-12-22T05:09:32;0.65;;;0.47;;
41643;SDS011;44236;48.098;11.582;2023-12-22T05:12:00;2.05;;;0.55;;
41643;SDS011;44236;48.098;11.582;2023-12-22T05:14:26;0.40;;;0.40;;
41643;SDS011;44236;48.098;11.582;2023-12-22T05:16:51;0.50;;;0.30;;
41643;SDS011;44236;48.098;11.582;2023-12-22T05:19:20;0.65;;;0.30;;
41643;SDS011;44236;48.098;11.582;2023-12-22T05:21:46;1.55;;;0.50;;
41643;SDS011;44236;48.098;11.582;2023-12-22T05:24:11;3.83;;;0.50;;
41643;SDS011;44236;48.098;11.582;2023-12-22T05:26:37;0.75;;;0.40;;
41643;SDS011;44236;48.098;11.582;2023-12-22T05:29:03;0.40;;;0.40;;
41643;SDS011;44236;48.098;11.582;2023-12-22T05:31:28;1.08;;;0.50;;
41643;SDS011;44236;48.098;11.582;2023-12-22T05:33:56;1.73;;;0.60;;
41643;SDS011;44236;48.098;11.582;2023-12-22T05:36:21;1.95;;;0.45;;
41643;SDS011;44236;48.098;11.582;2023-12-22T05:38:47;0.60;;;0.40;;
41643;SDS011;44236;48.098;11.582;2023-12-22T05:41:13;1.10;;;0.40;;
41643;SDS011;44236;48.098;11.582;2023-12-22T05:43:38;1.00;;;0.30;;
41643;SDS011;44236;48.098;11.582;2023-12-22T05:46:04;1.00;;;0.57;;
41643;SDS011;44236;48.098;11.582;2023-12-22T05:48:29;1.45;;;0.50;;
41643;SDS011;44236;48.098;11.582;2023-12-22T05:50:58;2.05;;;0.45;;
41643;SDS011;44236;48.098;11.582;2023-12-22T05:53:24;2.80;;;0.55;;
41643;SDS011;44236;48.098;11.582;2023-12-22T05:55:49;0.47;;;0.40;;
41643;SDS011;44236;48.098;11.582;2023-12-22T05:58:15;0.77;;;0.30;;
41643;SDS011;44236;48.098;11.582;2023-12-22T06:00:40;2.40;;;0.50;;
41643;SDS011;44236;48.098;11.582;2023-12-22T06:03:06;1.42;;;0.70;;
41643;SDS011;44236;48.098;11.582;2023-12-22T06:05:32;1.55;;;0.60;;
41643;SDS011;44236;48.098;11.582;2023-12-22T06:07:57;0.38;;;0.30;;
41643;SDS011;44236;48.098;11.582;2023-12-22T06:10:23;2.20;;;0.60;;
41643;SDS011;44236;48.098;11.582;2023-12-22T06:12:48;3.95;;;0.50;;
41643;SDS011;44236;48.098;11.582;2023-12-22T06:15:14;4.53;;;0.68;;
41643;SDS011;44236;48.098;11.582;2023-12-22T06:17:39;1.48;;;0.47;;
41643;SDS011;44236;48.098;11.582;2023-12-22T06:20:05;2.58;;;0.63;;
41643;SDS011;44236;48.098;11.582;2023-12-22T06:22:31;8.23;;;1.10;;
41643;SDS011;44236;48.098;11.582;2023-12-22T06:24:57;4.90;;;0.70;;
41643;SDS011;44236;48.098;11.582;2023-12-22T06:27:23;6.97;;;0.68;;
41643;SDS011;44236;48.098;11.582;2023-12-22T06:29:48;2.83;;;0.82;;
41643;SDS011;44236;48.098;11.582;2023-12-22T06:32:14;1.45;;;0.50;;
41643;SDS011;44236;48.098;11.582;2023-12-22T06:34:40;2.17;;;0.47;;
41643;SDS011;44236;48.098;11.582;2023-12-22T06:37:06;3.15;;;0.47;;
41643;SDS011;44236;48.098;11.582;2023-12-22T06:39:33;12.77;;;1.10;;
41643;SDS011;44236;48.098;11.582;2023-12-22T06:41:58;5.60;;;0.80;;
41643;SDS011;44236;48.098;11.582;2023-12-22T06:44:24;2.15;;;0.60;;
41643;SDS011;44236;48.098;11.582;2023-12-22T06:46:50;2.22;;;1.02;;
41643;SDS011;44236;48.098;11.582;2023-12-22T06:49:16;2.65;;;0.85;;
41643;SDS011;44236;48.098;11.582;2023-12-22T06:51:41;5.32;;;1.05;;
41643;SDS011;44236;48.098;11.582;2023-12-22T06:54:07;7.68;;;1.23;;
41643;SDS011;44236;48.098;11.582;2023-12-22T06:56:33;4.90;;;0.73;;
41643;SDS011;44236;48.098;11.582;2023-12-22T06:59:00;12.38;;;1.20;;
41643;SDS011;44236;48.098;11.582;2023-12-22T07:03:56;8.07;;;1.10;;
41643;SDS011;44236;48.098;11.582;2023-12-22T07:06:23;3.47;;;0.60;;
41643;SDS011;44236;48.098;11.582;2023-12-22T07:11:35;0.93;;;0.40;;
41643;SDS011;44236;48.098;11.582;2023-12-22T07:14:01;1.85;;;0.75;;
41643;SDS011;44236;48.098;11.582;2023-12-22T07:16:26;2.38;;;0.70;;
41643;SDS011;44236;48.098;11.582;2023-12-22T07:18:52;13.50;;;1.17;;
41643;SDS011;44236;48.098;11.582;2023-12-22T07:21:17;8.05;;;1.63;;
41643;SDS011;44236;48.098;11.582;2023-12-22T07:23:43;4.85;;;1.30;;
41643;SDS011;44236;48.098;11.582;2023-12-22T07:26:09;6.70;;;1.63;;
41643;SDS011;44236;48.098;11.582;2023-12-22T07:28:35;17.02;;;2.72;;
41643;SDS011;44236;48.098;11.582;2023-12-22T07:31:00;12.57;;;4.13;;
41643;SDS011;44236;48.098;11.582;2023-12-22T07:33:26;13.65;;;3.97;;
41643;SDS011;44236;48.098;11.582;2023-12-22T07:35:51;11.18;;;3.15;;
41643;SDS011;44236;48.098;11.582;2023-12-22T07:38:17;23.67;;;4.03;;
41643;SDS011;44236;48.098;11.582;2023-12-22T07:40:43;24.13;;;3.90;;
41643;SDS011;44236;48.098;11.582;2023-12-22T07:43:08;22.73;;;5.00;;
41643;SDS011;44236;48.098;11.582;2023-12-22T07:45:34;23.42;;;5.38;;
41643;SDS011;44236;48.098;11.582;2023-12-22T07:47:59;18.85;;;4.03;;
41643;SDS011;44236;48.098;11.582;2023-12-22T07:50:25;25.15;;;5.05;;
41643;SDS011;44236;48.098;11.582;2023-12-22T07:52:51;13.80;;;3.70;;
41643;SDS011;44236;48.098;11.582;2023-12-22T07:55:16;18.70;;;5.25;;
41643;SDS011;44236;48.098;11.582;2023-12-22T07:57:42;20.98;;;4.38;;
41643;SDS011;44236;48.098;11.582;2023-12-22T08:00:07;15.43;;;3.92;;
41643;SDS011;44236;48.098;11.582;2023-12-22T08:02:34;17.50;;;4.07;;
41643;SDS011;44236;48.098;11.582;2023-12-22T08:05:00;17.45;;;2.80;;
41643;SDS011;44236;48.098;11.582;2023-12-22T08:07:25;16.05;;;3.95;;
41643;SDS011;44236;48.098;11.582;2023-12-22T08:09:51;7.70;;;2.15;;
41643;SDS011;44236;48.098;11.582;2023-12-22T08:12:17;12.70;;;2.83;;
41643;SDS011;44236;48.098;11.582;2023-12-22T08:14:42;15.68;;;3.78;;
41643;SDS011;44236;48.098;11.582;2023-12-22T08:17:08;26.17;;;4.80;;
41643;SDS011;44236;48.098;11.582;2023-12-22T08:19:35;20.08;;;4.53;;
41643;SDS011;44236;48.098;11.582;2023-12-22T08:22:01;20.33;;;4.18;;
41643;SDS011;44236;48.098;11.582;2023-12-22T08:24:27;12.25;;;3.00;;
41643;SDS011;44236;48.098;11.582;2023-12-22T08:26:53;8.88;;;2.97;;
41643;SDS011;44236;48.098;11.582;2023-12-22T08:29:18;17.08;;;4.18;;
41643;SDS011;44236;48.098;11.582;2023-12-22T08:31:44;12.27;;;3.78;;
41643;SDS011;44236;48.098;11.582;2023-12-22T08:34:10;16.40;;;2.90;;
41643;SDS011;44236;48.098;11.582;2023-12-22T08:36:36;14.52;;;3.15;;
41643;SDS011;44236;48.098;11.582;2023-12-22T08:39:01;22.08;;;4.30;;
41643;SDS011;44236;48.098;11.582;2023-12-22T08:41:27;12.93;;;3.92;;
41643;SDS011;44236;48.098;11.582;2023-12-22T08:43:52;15.93;;;4.00;;
41643;SDS011;44236;48.098;11.582;2023-12-22T08:46:18;17.65;;;2.80;;
41643;SDS011;44236;48.098;11.582;2023-12-22T08:48:44;16.58;;;3.22;;
41643;SDS011;44236;48.098;11.582;2023-12-22T08:51:09;14.32;;;3.22;;
41643;SDS011;44236;48.098;11.582;2023-12-22T08:53:35;14.48;;;2.65;;
41643;SDS011;44236;48.098;11.582;2023-12-22T08:56:02;8.88;;;2.30;;
41643;SDS011;44236;48.098;11.582;2023-12-22T08:58:28;14.00;;;2.63;;
41643;SDS011;44236;48.098;11.582;2023-12-22T09:00:54;12.13;;;2.83;;
41643;SDS011;44236;48.098;11.582;2023-12-22T09:03:20;19.13;;;2.95;;
41643;SDS011;44236;48.098;11.582;2023-12-22T09:05:46;13.32;;;2.63;;
41643;SDS011;44236;48.098;11.582;2023-12-22T09:08:12;10.60;;;2.28;;
41643;SDS011;44236;48.098;11.582;2023-12-22T09:10:38;14.43;;;2.63;;
41643;SDS011;44236;48.098;11.582;2023-12-22T09:13:03;11.18;;;2.00;;
41643;SDS011;44236;48.098;11.582;2023-12-22T09:15:29;14.57;;;2.42;;
41643;SDS011;44236;48.098;11.582;2023-12-22T09:17:55;7.15;;;1.90;;
41643;SDS011;44236;48.098;11.582;2023-12-22T09:20:21;5.80;;;1.77;;
41643;SDS011;44236;48.098;11.582;2023-12-22T09:22:47;6.43;;;1.40;;
41643;SDS011;44236;48.098;11.582;2023-12-22T09:25:12;7.30;;;1.95;;
41643;SDS011;44236;48.098;11.582;2023-12-22T09:27:38;6.13;;;1.42;;
41643;SDS011;44236;48.098;11.582;2023-12-22T09:30:04;7.35;;;1.92;;
41643;SDS011;44236;48.098;11.582;2023-12-22T09:32:33;5.63;;;1.77;;
41643;SDS011;44236;48.098;11.582;2023-12-22T09:34:59;10.15;;;2.65;;
41643;SDS011;44236;48.098;11.582;2023-12-22T09:37:26;33.35;;;2.65;;
41643;SDS011;44236;48.098;11.582;2023-12-22T09:39:51;18.23;;;2.00;;
41643;SDS011;44236;48.098;11.582;2023-12-22T09:42:17;8.60;;;1.80;;
41643;SDS011;44236;48.098;11.582;2023-12-22T09:44:45;8.15;;;2.30;;
41643;SDS011;44236;48.098;11.582;2023-12-22T09:47:14;15.07;;;2.97;;
41643;SDS011;44236;48.098;11.582;2023-12-22T09:49:42;12.07;;;2.28;;
41643;SDS011;44236;48.098;11.582;2023-12-22T09:52:09;9.70;;;1.90;;
41643;SDS011;44236;48.098;11.582;2023-12-22T09:54:36;15.30;;;1.85;;
41643;SDS011;44236;48.098;11.582;2023-12-22T09:57:02;16.88;;;2.70;;
41643;SDS011;44236;48.098;11.582;2023-12-22T09:59:29;13.75;;;1.92;;
41643;SDS011;44236;48.098;11.582;2023-12-22T10:01:56;10.93;;;1.90;;
41643;SDS011;44236;48.098;11.582;2023-12-22T10:04:24;6.70;;;1.70;;
41643;SDS011;44236;48.098;11.582;2023-12-22T10:06:50;8.82;;;1.73;;
41643;SDS011;44236;48.098;11.582;2023-12-22T10:09:18;6.55;;;1.40;;
41643;SDS011;44236;48.098;11.582;2023-12-22T10:11:44;18.52;;;2.70;;
41643;SDS011;44236;48.098;11.582;2023-12-22T10:14:14;14.02;;;2.95;;
41643;SDS011;44236;48.098;11.582;2023-12-22T10:16:47;8.57;;;1.65;;
41643;SDS011;44236;48.098;11.582;2023-12-22T10:19:16;17.45;;;3.60;;
41643;SDS011;44236;48.098;11.582;2023-12-22T10:21:42;8.23;;;2.03;;
41643;SDS011;44236;48.098;11.582;2023-12-22T10:24:07;8.55;;;2.40;;
41643;SDS011;44236;48.098;11.582;2023-12-22T10:27:09;11.88;;;2.33;;
41643;SDS011;44236;48.098;11.582;2023-12-22T10:29:35;4.88;;;1.42;;
41643;SDS011;44236;48.098;11.582;2023-12-22T10:32:02;12.63;;;2.13;;
41643;SDS011;44236;48.098;11.582;2023-12-22T10:34:29;6.43;;;1.63;;
41643;SDS011;44236;48.098;11.582;2023-12-22T10:36:55;9.85;;;1.48;;
41643;SDS011;44236;48.098;11.582;2023-12-22T10:39:21;5.50;;;1.30;;
41643;SDS011;44236;48.098;11.582;2023-12-22T10:41:47;9.30;;;1.83;;
41643;SDS011;44236;48.098;11.582;2023-12-22T10:44:14;5.88;;;1.20;;
41643;SDS011;44236;48.098;11.582;2023-12-22T10:46:42;7.05;;;1.90;;
41643;SDS011;44236;48.098;11.582;2023-12-22T10:49:08;8.18;;;1.48;;
41643;SDS011;44236;48.098;11.582;2023-12-22T10:51:33;10.55;;;1.55;;
41643;SDS011;44236;48.098;11.582;2023-12-22T10:53:59;5.38;;;1.25;;
41643;SDS011;44236;48.098;11.582;2023-12-22T10:56:24;6.65;;;1.95;;
41643;SDS011;44236;48.098;11.582;2023-12-22T10:58:51;7.95;;;1.65;;
41643;SDS011;44236;48.098;11.582;2023-12-22T11:01:17;4.97;;;0.93;;
41643;SDS011;44236;48.098;11.582;2023-12-22T11:03:48;10.70;;;1.38;;
41643;SDS011;44236;48.098;11.582;2023-12-22T11:06:16;4.65;;;1.50;;
41643;SDS011;44236;48.098;11.582;2023-12-22T11:08:43;13.65;;;2.17;;
41643;SDS011;44236;48.098;11.582;2023-12-22T11:11:33;9.18;;;1.55;;
41643;SDS011;44236;48.098;11.582;2023-12-22T11:13:59;6.25;;;1.25;;
41643;SDS011;44236;48.098;11.582;2023-12-22T11:16:27;13.55;;;1.45;;
41643;SDS011;44236;48.098;11.582;2023-12-22T11:18:58;9.50;;;1.25;;
41643;SDS011;44236;48.098;11.582;2023-12-22T11:21:25;5.45;;;1.08;;
41643;SDS011;44236;48.098;11.582;2023-12-22T11:23:51;6.45;;;1.13;;
41643;SDS011;44236;48.098;11.582;2023-12-22T11:26:18;8.65;;;1.00;;
41643;SDS011;44236;48.098;11.582;2023-12-22T11:28:45;2.75;;;1.00;;
41643;SDS011;44236;48.098;11.582;2023-12-22T11:31:12;9.07;;;0.98;;
41643;SDS011;44236;48.098;11.582;2023-12-22T11:33:47;8.85;;;1.20;;
41643;SDS011;44236;48.098;11.582;2023-12-22T11:36:15;2.38;;;1.02;;
41643;SDS011;44236;48.098;11.582;2023-12-22T11:38:43;3.33;;;1.02;;
41643;SDS011;44236;48.098;11.582;2023-12-22T11:43:44;7.47;;;1.00;;
41643;SDS011;44236;48.098;11.582;2023-12-22T11:46:11;2.05;;;0.80;;
41643;SDS011;44236;48.098;11.582;2023-12-22T11:48:37;6.85;;;1.30;;
41643;SDS011;44236;48.098;11.582;2023-12-22T11:51:14;3.42;;;0.73;;
41643;SDS011;44236;48.098;11.582;2023-12-22T11:53:40;5.53;;;0.80;;
41643;SDS011;44236;48.098;11.582;2023-12-22T11:56:08;1.65;;;0.60;;
41643;SDS011;44236;48.098;11.582;2023-12-22T11:58:41;1.75;;;0.57;;
41643;SDS011;44236;48.098;11.582;2023-12-22T12:03:35;2.63;;;0.70;;
41643;SDS011;44236;48.098;11.582;2023-12-22T12:06:09;3.05;;;0.90;;
41643;SDS011;44236;48.098;11.582;2023-12-22T12:08:36;2.60;;;0.63;;
41643;SDS011;44236;48.098;11.582;2023-12-22T12:11:01;6.43;;;0.80;;
41643;SDS011;44236;48.098;11.582;2023-12-22T12:13:28;4.68;;;0.70;;
41643;SDS011;44236;48.098;11.582;2023-12-22T12:15:56;4.03;;;0.68;;
41643;SDS011;44236;48.098;11.582;2023-12-22T12:18:27;3.03;;;0.60;;
41643;SDS011;44236;48.098;11.582;2023-12-22T12:20:53;1.98;;;0.50;;
41643;SDS011;44236;48.098;11.582;2023-12-22T12:23:19;3.88;;;0.70;;
41643;SDS011;44236;48.098;11.582;2023-12-22T12:25:48;6.38;;;0.93;;
41643;SDS011;44236;48.098;11.582;2023-12-22T12:28:14;5.13;;;1.00;;
41643;SDS011;44236;48.098;11.582;2023-12-22T12:30:43;2.38;;;0.57;;
41643;SDS011;44236;48.098;11.582;2023-12-22T12:33:11;5.05;;;0.77;;
41643;SDS011;44236;48.098;11.582;2023-12-22T12:35:39;4.68;;;0.63;;
41643;SDS011;44236;48.098;11.582;2023-12-22T12:38:06;6.82;;;1.00;;
41643;SDS011;44236;48.098;11.582;2023-12-22T12:40:33;2.65;;;0.55;;
41643;SDS011;44236;48.098;11.582;2023-12-22T12:43:01;11.35;;;1.20;;
41643;SDS011;44236;48.098;11.582;2023-12-22T12:45:28;3.30;;;0.50;;
41643;SDS011;44236;48.098;11.582;2023-12-22T12:47:54;17.10;;;1.45;;
41643;SDS011;44236;48.098;11.582;2023-12-22T12:50:22;7.60;;;1.10;;
41643;SDS011;44236;48.098;11.582;2023-12-22T12:52:48;6.57;;;0.60;;
41643;SDS011;44236;48.098;11.582;2023-12-22T12:55:16;5.00;;;0.98;;
41643;SDS011;44236;48.098;11.582;2023-12-22T12:57:43;8.90;;;1.15;;
41643;SDS011;44236;48.098;11.582;2023-12-22T13:00:09;3.60;;;0.80;;
41643;SDS011;44236;48.098;11.582;2023-12-22T13:02:35;5.00;;;0.90;;
41643;SDS011;44236;48.098;11.582;2023-12-22T13:05:01;6.65;;;0.88;;
41643;SDS011;44236;48.098;11.582;2023-12-22T13:07:29;15.18;;;1.65;;
41643;SDS011;44236;48.098;11.582;2023-12-22T13:09:55;8.77;;;1.38;;
41643;SDS011;44236;48.098;11.582;2023-12-22T13:12:24;7.80;;;1.55;;
41643;SDS011;44236;48.098;11.582;2023-12-22T13:14:50;5.70;;;1.50;;
41643;SDS011;44236;48.098;11.582;2023-12-22T13:17:16;5.95;;;1.15;;
41643;SDS011;44236;48.098;11.582;2023-12-22T13:19:42;9.20;;;0.90;;
41643;SDS011;44236;48.098;11.582;2023-12-22T13:22:08;9.93;;;1.00;;
41643;SDS011;44236;48.098;11.582;2023-12-22T13:24:33;8.10;;;1.10;;
41643;SDS011;44236;48.098;11.582;2023-12-22T13:27:00;3.80;;;0.70;;
41643;SDS011;44236;48.098;11.582;2023-12-22T13:29:28;4.15;;;0.57;;
41643;SDS011;44236;48.098;11.582;2023-12-22T13:31:54;2.83;;;0.90;;
41643;SDS011;44236;48.098;11.582;2023-12-22T13:34:22;4.13;;;1.45;;
41643;SDS011;44236;48.098;11.582;2023-12-22T13:36:47;3.78;;;0.50;;
41643;SDS011;44236;48.098;11.582;2023-12-22T13:39:13;1.27;;;0.57;;
41643;SDS011;44236;48.098;11.582;2023-12-22T13:41:39;1.45;;;0.63;;
41643;SDS011;44236;48.098;11.582;2023-12-22T13:44:07;3.42;;;0.85;;
41643;SDS011;44236;48.098;11.582;2023-12-22T13:46:33;6.30;;;0.55;;
41643;SDS011;44236;48.098;11.582;2023-12-22T13:49:00;2.33;;;0.60;;
41643;SDS011;44236;48.098;11.582;2023-12-22T13:51:27;2.88;;;0.60;;
41643;SDS011;44236;48.098;11.582;2023-12-22T13:54:03;0.70;;;0.40;;
41643;SDS011;44236;48.098;11.582;2023-12-22T13:56:35;4.78;;;0.80;;
41643;SDS011;44236;48.098;11.582;2023-12-22T13:59:01;3.28;;;0.60;;
41643;SDS011;44236;48.098;11.582;2023-12-22T14:01:27;1.88;;;0.52;;
41643;SDS011;44236;48.098;11.582;2023-12-22T14:03:53;1.00;;;0.50;;
41643;SDS011;44236;48.098;11.582;2023-12-22T14:06:20;3.88;;;0.70;;
41643;SDS011;44236;48.098;11.582;2023-12-22T14:08:45;1.08;;;0.47;;
41643;SDS011;44236;48.098;11.582;2023-12-22T14:11:11;1.98;;;0.80;;
41643;SDS011;44236;48.098;11.582;2023-12-22T14:13:38;1.58;;;0.70;;
41643;SDS011;44236;48.098;11.582;2023-12-22T14:16:06;2.00;;;0.47;;
41643;SDS011;44236;48.098;11.582;2023-12-22T14:18:32;0.57;;;0.47;;
41643;SDS011;44236;48.098;11.582;2023-12-22T14:20:57;0.82;;;0.30;;
41643;SDS011;44236;48.098;11.582;2023-12-22T14:23:24;2.38;;;0.70;;
41643;SDS011;44236;48.098;11.582;2023-12-22T14:25:50;2.00;;;0.75;;
41643;SDS011;44236;48.098;11.582;2023-12-22T14:28:15;0.95;;;0.40;;
41643;SDS011;44236;48.098;11.582;2023-12-22T14:30:41;1.00;;;0.40;;
41643;SDS011;44236;48.098;11.582;2023-12-22T14:33:07;0.93;;;0.40;;
41643;SDS011;44236;48.098;11.582;2023-12-22T14:35:34;3.20;;;0.95;;
41643;SDS011;44236;48.098;11.582;2023-12-22T14:38:00;2.58;;;0.43;;